DABB

Annaba Airport

Annabah, Algeria
METAR DABB 222130Z 03005KT 4000 BR FEW016 SCT026 16/16 Q1017
Observed Flight Rules
Apr-22 @ 21:30 UTC (29 minutes ago) Instrument Flight Rules
Wind Visibility Clouds Conditions
30° at 5 knots 4,007 meters
  • Few at 1,600' AGL
  • Scattered at 2,600' AGL
  • Mist
Temperatures Readings
Current 16°C / 61°F
Dewpoint 16°C / 61°F
Humidity 100%
Altimeter 30.03" Hg
Pressure 1017 hPa
Elevation 4
METAR DABB 222130Z 03005KT 4000 BR FEW016 SCT026 16/16 Q1017
Observed Flight Rules
Apr-22 @ 21:30 UTC
(29 minutes ago)
IFR
Wind Visibility
30° at 5 knots 4,007 meters
Clouds
  • Few at 1,600' AGL
  • Scattered at 2,600' AGL
Conditions
  • Mist
Temperature Dewpoint
16°C / 61°F 16°C / 61°F
Humidity Altimeter Pressure
100% 30.03" Hg 1017 hPa